LTCK/MSR METAR and TAF weather

Enter ICAO airport designator
Station Type Date Time Source
LTCK METAR 2021/09/20 03:50 UTC NOAA

LTCK 200350Z 17003KT 150V210 CAVOK 10/M01 Q1018


Station Type Date Time Source
LTCK Decoded METAR 2021/09/20 03:50 UTC NOAA

Mus Tur-Afb , Turkey (LTCK) 38-45N 041-40E
Sep 19, 2021 - 11:50 PM EDT / 2021.09.20 0350 UTC
Wind: from the S (170 degrees) at 3 MPH (3 KT) (direction variable):0
Visibility: greater than 7 mile(s):0
Temperature: 50 F (10 C)
Dew Point: 30 F (-1 C)
Relative Humidity: 46%
Pressure (altimeter): 30.06 in. Hg (1018 hPa)
ob: LTCK 200350Z 17003KT 150V210 CAVOK 10/M01 Q1018
cycle: 4

Station Type Date Time Source
LTCK TAF UTC NOAA

Error!

Example: see airport list